WetterOnline ( https://www.wetteronline.de )

Wetter aktuell Steinbach am Wald

Aktuelles Wetter: Neuhaus (851m)

6-stündlich | Neueste Meldungen
Ortszeit Temperatur Wetter
So, 20.10. 2:00 9.0° C Regen
Sa, 19.10. 20:00 8.5° C bewölkt
Sa, 19.10. 14:00 9.0° C bewölkt
Sa, 19.10. 8:00 7.9° C bedeckt
Sa, 19.10. 2:00 5.8° C bewölkt
Fr, 18.10. 20:00 9.0° C bewölkt
Fr, 18.10. 14:00 11.6° C bewölkt
Fr, 18.10. 8:00 9.5° C bedeckt
Ortszeit Temperatur Wetter
So, 20.10. 4:30 8.4° C bewölkt
So, 20.10. 4:20 8.4° C bewölkt
So, 20.10. 4:10 8.5° C bedeckt
So, 20.10. 4:00 8.6° C bewölkt
So, 20.10. 3:50 8.6° C bewölkt
So, 20.10. 3:40 8.6° C bewölkt
So, 20.10. 3:30 8.8° C bewölkt
So, 20.10. 3:00 8.9° C bewölkt
Ortszeit Relative Feuchte Sichtweite
So, 20.10. 2:00 98% 5.0 km
Sa, 19.10. 20:00 97% 25 km
Sa, 19.10. 14:00 98% 25 km
Sa, 19.10. 8:00 99% 1.8 km
Sa, 19.10. 2:00 97% 8 km
Fr, 18.10. 20:00 94% 45 km
Fr, 18.10. 14:00 95% 30 km
Fr, 18.10. 8:00 98% 4.3 km
Ortszeit Relative Feuchte Sichtweite
So, 20.10. 4:30 98% 3.7 km
So, 20.10. 4:20 98% -
So, 20.10. 4:10 98% -
So, 20.10. 4:00 98% 3.4 km
So, 20.10. 3:50 98% -
So, 20.10. 3:40 98% -
So, 20.10. 3:30 98% 5.0 km
So, 20.10. 3:00 98% 4.4 km
Ortszeit Niederschlagsmenge Niederschlagsart
So, 20.10. 2:00 1 l/m2 in 6 Std. Regen
Sa, 19.10. 20:00 3 l/m2 in 12 Std. Regen
Sa, 19.10. 14:00 3 l/m2 in 6 Std. Regen
Sa, 19.10. 8:00 0.1 l/m2 in 12 Std. Regen
Sa, 19.10. 2:00 0.0 l/m2 in 6 Std. -
Fr, 18.10. 20:00 6 l/m2 in 12 Std. Regen
Fr, 18.10. 14:00 0.8 l/m2 in 6 Std. Regen
Fr, 18.10. 8:00 5 l/m2 in 12 Std. Regen
Ortszeit Niederschlagsmenge Niederschlagsart
So, 20.10. 4:30 0.0 l/m2 in 1 Std. -
So, 20.10. 4:20 keine Meldung -
So, 20.10. 4:10 keine Meldung -
So, 20.10. 4:00 0.0 l/m2 in 1 Std. -
So, 20.10. 3:50 keine Meldung -
So, 20.10. 3:40 keine Meldung -
So, 20.10. 3:30 0.0 l/m2 in 1 Std. -
So, 20.10. 3:00 0.1 l/m2 in 1 Std. Regen
Ortszeit Stärke Spitze Richtung
km/h Bft. km/h Grad Sektor
So, 20.10. 2:00 17 3 43 170° S
Sa, 19.10. 20:00 19 3 39 170° S
Sa, 19.10. 14:00 20 4 43 190° S
Sa, 19.10. 8:00 18 3 40 190° S
Sa, 19.10. 2:00 11 2 47 180° S
Fr, 18.10. 20:00 22 4 50 230° SW
Fr, 18.10. 14:00 14 3 36 180° S
Fr, 18.10. 8:00 11 2 40 200° S
Ortszeit Stärke Spitze Richtung
km/h Bft. km/h Grad Sektor
So, 20.10. 4:30 14 3 25 170° S
So, 20.10. 4:20 14 3 - 170° S
So, 20.10. 4:10 14 3 - 170° S
So, 20.10. 4:00 17 3 30 170° S
So, 20.10. 3:50 17 3 - 170° S
So, 20.10. 3:40 17 3 - 170° S
So, 20.10. 3:30 14 3 29 170° S
So, 20.10. 3:00 17 3 31 190° S
Ortszeit Untergrenze Bedeckung Gattung
total tief tief mittel hoch
So, 20.10. 2:00 30 m 7/8 7/8 - - -
Sa, 19.10. 20:00 150 m 8/8 7/8 - - -
Sa, 19.10. 14:00 90 m 7/8 7/8 - - -
Sa, 19.10. 8:00 <30 m 8/8 0/8 - - -
Sa, 19.10. 2:00 90 m 8/8 4/8 - - -
Fr, 18.10. 20:00 120 m 7/8 7/8 - - -
Fr, 18.10. 14:00 150 m 7/8 7/8 - - -
Fr, 18.10. 8:00 60 m 8/8 8/8 - - -
Ortszeit Bedeckungsgrad in Achtel und Wolkenuntergrenze
So, 20.10. 4:30 7(30m) 7(780m) 7(3000m)
So, 20.10. 4:20 7(30m) 7(780m) 7(3000m)
So, 20.10. 4:10 8(30m) 8(660m) 8(780m)
So, 20.10. 4:00 7(30m) 7(1500m) 8(3300m)
So, 20.10. 3:50 7(30m) 7(1500m) 8(3300m)
So, 20.10. 3:40 7(60m) 7(1500m) 8(3000m)
So, 20.10. 3:30 7(30m) 8(1020m) 8(1470m)
So, 20.10. 3:00 7(30m)
Ortszeit Stationsdruck (hPa) Tendenz (hPa in 3 Std.)
So, 20.10. 2:00 913 - 0,4
Sa, 19.10. 20:00 912 - 0,4
Sa, 19.10. 14:00 913 - 0,5
Sa, 19.10. 8:00 913 - 0,3
Sa, 19.10. 2:00 914 - 0,2
Fr, 18.10. 20:00 914 + 0,9
Fr, 18.10. 14:00 913 - 1,7
Fr, 18.10. 8:00 915 - 0,2
Ortszeit Stationsdruck (hPa) Tendenz (hPa in 3 Std.)
So, 20.10. 4:30 912 - 0,4
So, 20.10. 4:20 912 keine Meldung
So, 20.10. 4:10 912 keine Meldung
So, 20.10. 4:00 912 - 0,5
So, 20.10. 3:50 912 keine Meldung
So, 20.10. 3:40 912 keine Meldung
So, 20.10. 3:30 913 - 0,2
So, 20.10. 3:00 913 - 0,2
Ortszeit Schneehöhe (cm)
So, 20.10. 2:00 0
Sa, 19.10. 20:00 0
Sa, 19.10. 14:00 0
Sa, 19.10. 8:00 0
Sa, 19.10. 2:00 0
Fr, 18.10. 20:00 0
Fr, 18.10. 14:00 0
Fr, 18.10. 8:00 0
Ortszeit Schneehöhe (cm)
So, 20.10. 4:30 0
So, 20.10. 4:20 0
So, 20.10. 4:10 0
So, 20.10. 4:00 0
So, 20.10. 3:50 0
So, 20.10. 3:40 0
So, 20.10. 3:30 0
So, 20.10. 3:00 0
Link zu dieser Seite / Seite empfehlen

Das Wetter in ...